Time;durP1;ratioP1;P1;durP2;ratioP2;P2;SDS_P1;SDS_P2;PMS_P1;PMS_P2;Temp;Humidity;BMP_temperature;BMP_pressure;BME280_temperature;BME280_humidity;BME280_pressure;Samples;Min_cycle;Max_cycle;Signal;HPM_P1;HPM_P2
2022/08/19 00:01:08;;;;;;;6.47;3.50;;;;;;;28.09;36.03;100619.09;5086445;27;20780;-58
2022/08/19 00:03:34;;;;;;;5.27;3.60;;;;;;;28.10;36.26;100612.56;5085865;28;20940;-60
2022/08/19 00:05:59;;;;;;;3.33;3.03;;;;;;;28.07;36.27;100618.56;5085598;28;20394;-57
2022/08/19 00:08:25;;;;;;;6.53;3.40;;;;;;;28.05;36.50;100607.97;5087151;28;20752;-57
2022/08/19 00:10:51;;;;;;;5.17;3.10;;;;;;;28.03;36.46;100610.16;5085813;28;20396;-59
2022/08/19 00:13:16;;;;;;;5.53;3.40;;;;;;;27.99;36.55;100606.41;5072713;28;20394;-58
2022/08/19 00:15:44;;;;;;;3.75;3.40;;;;;;;28.00;36.81;100617.03;5086502;28;20381;-57
2022/08/19 00:18:10;;;;;;;4.03;3.03;;;;;;;27.98;37.01;100602.88;5085139;28;20371;-60
2022/08/19 00:20:38;;;;;;;3.72;3.38;;;;;;;28.02;36.87;100611.28;5085164;28;20461;-58
2022/08/19 00:23:03;;;;;;;3.70;3.30;;;;;;;27.97;36.93;100598.53;5086127;28;20382;-58
2022/08/19 00:25:29;;;;;;;6.25;3.50;;;;;;;27.96;37.01;100602.34;5085134;28;20384;-58
2022/08/19 00:27:55;;;;;;;5.65;3.67;;;;;;;27.96;36.71;100596.88;5086157;28;20486;-58
2022/08/19 00:30:21;;;;;;;7.10;3.78;;;;;;;27.96;37.12;100604.25;5085467;28;20416;-59
2022/08/19 00:32:46;;;;;;;5.13;3.47;;;;;;;27.91;36.85;100604.31;5085650;28;20374;-58
2022/08/19 00:35:12;;;;;;;6.80;3.90;;;;;;;27.85;37.10;100598.06;5085492;28;20805;-58
2022/08/19 00:37:42;;;;;;;6.97;3.70;;;;;;;27.84;37.33;100600.00;5085607;28;20393;-57
2022/08/19 00:40:10;;;;;;;8.73;4.00;;;;;;;27.85;37.24;100608.97;5085117;28;20518;-58
2022/08/19 00:42:35;;;;;;;7.95;4.20;;;;;;;27.86;37.23;100599.72;5086349;28;20378;-57
2022/08/19 00:45:01;;;;;;;6.38;3.63;;;;;;;27.84;37.47;100600.00;5085415;28;20374;-59
2022/08/19 00:47:27;;;;;;;7.93;3.75;;;;;;;27.85;37.28;100609.78;5085949;28;20378;-59
2022/08/19 00:49:56;;;;;;;6.93;3.63;;;;;;;27.81;37.38;100608.75;5085588;28;20868;-57
2022/08/19 00:52:36;;;;;;;4.63;3.60;;;;;;;27.78;37.22;100605.78;5085143;28;20388;-58
2022/08/19 00:55:05;;;;;;;5.18;3.60;;;;;;;27.77;37.25;100610.41;5085414;28;20918;-58
2022/08/19 00:57:36;;;;;;;5.93;3.40;;;;;;;27.73;36.93;100620.28;5089252;28;20396;-58
2022/08/19 01:00:06;;;;;;;4.50;3.50;;;;;;;27.69;37.23;100618.41;5090776;28;20887;-58
2022/08/19 01:02:32;;;;;;;4.40;3.13;;;;;;;27.60;36.93;100612.75;5093912;28;20943;-58
2022/08/19 01:05:01;;;;;;;5.88;3.20;;;;;;;27.56;36.98;100625.34;5089853;28;20985;-57
2022/08/19 01:07:26;;;;;;;3.70;3.30;;;;;;;27.54;37.25;100620.16;5089142;28;20394;-58
2022/08/19 01:09:52;;;;;;;5.40;3.10;;;;;;;27.53;37.45;100621.28;5085714;28;20392;-58
2022/08/19 01:12:18;;;;;;;4.72;3.00;;;;;;;27.48;37.41;100610.44;5075933;28;20388;-58
2022/08/19 01:14:45;;;;;;;5.20;3.53;;;;;;;27.44;37.24;100612.09;5076269;28;20391;-59
2022/08/19 01:17:11;;;;;;;5.30;3.08;;;;;;;27.43;37.22;100615.91;5071825;28;20487;-57
2022/08/19 01:19:40;;;;;;;4.88;3.10;;;;;;;27.41;37.39;100613.47;5072222;28;20421;-57
2022/08/19 01:22:21;;;;;;;4.10;3.25;;;;;;;27.42;37.23;100615.13;5074539;28;20401;-58
2022/08/19 01:24:47;;;;;;;3.10;2.80;;;;;;;27.39;37.41;100604.78;5078776;28;20389;-58
2022/08/19 01:27:12;;;;;;;5.05;2.80;;;;;;;27.41;37.21;100615.41;5075621;28;20901;-59
2022/08/19 01:29:41;;;;;;;4.22;3.40;;;;;;;27.40;37.22;100611.84;5080595;28;20497;-59
2022/08/19 01:32:11;;;;;;;4.78;3.10;;;;;;;27.34;37.25;100606.75;5084243;28;20386;-58
2022/08/19 01:34:37;;;;;;;7.97;3.40;;;;;;;27.28;37.68;100608.69;5069706;28;20444;-57
2022/08/19 01:37:08;;;;;;;6.60;3.20;;;;;;;27.29;37.61;100621.19;5071401;28;20383;-58
2022/08/19 01:40:20;;;;;;;5.20;3.15;;;;;;;27.17;37.92;100621.53;5053493;28;20410;-58
2022/08/19 01:42:47;;;;;;;4.95;3.13;;;;;;;27.20;37.67;100625.59;5046440;28;20919;-57
2022/08/19 01:45:13;;;;;;;4.28;3.03;;;;;;;27.18;37.66;100614.19;5046526;28;20378;-58
2022/08/19 01:47:39;;;;;;;4.60;3.10;;;;;;;27.16;37.99;100617.19;5045519;28;20436;-57
2022/08/19 01:50:07;;;;;;;4.22;3.17;;;;;;;27.10;38.18;100615.63;5045091;28;20390;-59
2022/08/19 01:54:57;;;;;;;3.42;3.00;;;;;;;27.04;38.47;100617.53;5086811;27;20402;-59
2022/08/19 01:57:23;;;;;;;6.73;3.10;;;;;;;26.98;38.32;100615.94;5086569;28;20398;-58
2022/08/19 01:59:48;;;;;;;5.80;3.43;;;;;;;26.95;38.29;100605.63;5086540;28;20370;-59
2022/08/19 02:02:14;;;;;;;5.82;3.30;;;;;;;26.97;38.64;100611.59;5087988;28;20483;-59
2022/08/19 02:04:40;;;;;;;7.60;3.37;;;;;;;26.99;38.58;100616.75;5087666;28;20386;-58
2022/08/19 02:07:07;;;;;;;5.05;3.40;;;;;;;26.93;38.38;100618.69;5087521;28;20393;-59
2022/08/19 02:09:34;;;;;;;3.92;3.10;;;;;;;26.82;38.53;100620.66;5087942;28;20386;-59
2022/08/19 02:11:59;;;;;;;4.75;3.45;;;;;;;26.76;38.95;100623.69;5091996;28;20405;-59
2022/08/19 02:15:57;;;;;;;5.00;3.20;;;;;;;26.69;38.97;100618.59;5041497;28;20405;-57
2022/08/19 02:18:23;;;;;;;3.80;3.30;;;;;;;26.61;39.02;100617.25;5046321;28;20397;-57
2022/08/19 02:20:49;;;;;;;3.80;3.50;;;;;;;26.62;39.20;100624.31;5046150;28;20381;-58
2022/08/19 02:23:16;;;;;;;4.57;3.10;;;;;;;26.51;39.31;100620.00;5045550;28;20397;-57
2022/08/19 02:25:44;;;;;;;7.00;3.50;;;;;;;26.45;39.66;100621.09;5045644;28;20396;-57
2022/08/19 02:28:11;;;;;;;5.63;3.50;;;;;;;26.43;39.81;100626.00;5045387;28;20394;-57
2022/08/19 02:30:38;;;;;;;6.00;3.83;;;;;;;26.43;39.64;100628.72;5045490;28;20480;-57
2022/08/19 02:33:04;;;;;;;10.52;3.50;;;;;;;26.43;39.90;100629.53;5045983;28;20397;-56
2022/08/19 02:35:30;;;;;;;4.57;3.88;;;;;;;26.41;40.24;100634.44;5045159;28;20500;-59
2022/08/19 02:40:40;;;;;;;8.27;4.25;;;;;;;26.36;40.43;100637.16;5045293;28;20412;-57
2022/08/19 02:43:08;;;;;;;4.33;3.77;;;;;;;26.37;40.49;100630.66;5044960;28;20756;-56
2022/08/19 02:46:15;;;;;;;6.07;4.40;;;;;;;26.36;40.92;100644.50;5049240;28;20775;-58
2022/08/19 02:48:41;;;;;;;4.78;4.28;;;;;;;26.39;40.86;100647.50;5059524;28;20463;-57
2022/08/19 02:51:06;;;;;;;6.85;4.00;;;;;;;26.38;41.08;100650.47;5048061;28;20833;-59
2022/08/19 02:53:32;;;;;;;4.90;3.60;;;;;;;26.35;41.02;100657.31;5056397;28;20471;-58
2022/08/19 02:55:57;;;;;;;4.67;4.20;;;;;;;26.32;41.15;100660.56;5049768;28;20439;-57
2022/08/19 02:58:23;;;;;;;5.25;4.70;;;;;;;26.35;41.39;100664.66;5053126;28;20400;-58
2022/08/19 03:00:52;;;;;;;13.07;5.13;;;;;;;26.28;41.29;100663.03;5059840;28;20424;-58
2022/08/19 03:03:18;;;;;;;7.85;4.45;;;;;;;26.35;41.35;100673.59;5053681;28;20397;-58
2022/08/19 03:05:44;;;;;;;7.70;4.50;;;;;;;26.32;41.28;100674.16;5046684;28;20927;-57
2022/08/19 03:08:12;;;;;;;7.03;4.23;;;;;;;26.25;40.84;100669.03;5062895;28;20384;-57
2022/08/19 03:10:53;;;;;;;6.90;4.13;;;;;;;26.22;41.15;100676.91;5088405;27;20811;-58
2022/08/19 03:13:18;;;;;;;4.20;3.60;;;;;;;26.14;41.16;100681.00;5091740;28;20896;-57
2022/08/19 03:15:46;;;;;;;6.07;3.63;;;;;;;26.09;41.08;100681.81;5087420;28;20776;-58
2022/08/19 03:18:12;;;;;;;10.50;4.03;;;;;;;26.09;41.47;100689.97;5091797;28;21479;-59
2022/08/19 03:20:46;;;;;;;73.93;12.48;;;;;;;26.05;41.43;100691.59;5091089;28;20453;-58
2022/08/19 03:23:15;;;;;;;22.80;5.47;;;;;;;26.04;41.44;100683.75;5101593;28;20429;-58
2022/08/19 03:25:42;;;;;;;17.85;4.85;;;;;;;26.03;41.38;100688.34;5089617;28;20401;-57
2022/08/19 03:28:11;;;;;;;8.48;4.22;;;;;;;26.06;41.34;100693.25;5086271;28;20428;-59
2022/08/19 03:30:39;;;;;;;9.02;4.40;;;;;;;26.04;41.50;100705.47;5086892;28;20414;-61
2022/08/19 03:33:05;;;;;;;7.07;4.35;;;;;;;26.07;41.31;100691.31;5088419;28;20383;-60
2022/08/19 03:35:30;;;;;;;6.63;3.97;;;;;;;26.00;41.16;100696.22;5086945;28;20398;-59
2022/08/19 03:37:57;;;;;;;9.07;4.37;;;;;;;26.07;41.39;100694.03;5091665;28;20946;-59
2022/08/19 03:40:23;;;;;;;8.27;4.40;;;;;;;26.09;41.21;100697.28;5088045;28;20392;-60
2022/08/19 03:42:49;;;;;;;8.53;4.60;;;;;;;26.12;40.98;100700.28;5091633;28;20753;-58
2022/08/19 03:45:15;;;;;;;9.90;4.90;;;;;;;26.12;41.19;100692.13;5088243;28;20396;-59
2022/08/19 03:47:41;;;;;;;13.82;4.80;;;;;;;26.12;41.01;100694.84;5085771;28;20398;-59
2022/08/19 03:50:08;;;;;;;14.60;4.30;;;;;;;26.11;41.32;100698.66;5091652;28;20428;-58
2022/08/19 03:52:33;;;;;;;15.45;4.47;;;;;;;26.17;40.84;100699.47;5089641;28;20475;-57
2022/08/19 03:54:59;;;;;;;11.80;4.85;;;;;;;26.20;41.19;100696.22;5086386;28;20812;-58
2022/08/19 03:57:24;;;;;;;8.15;4.65;;;;;;;26.29;41.16;100707.34;5087281;28;20387;-58
2022/08/19 03:59:50;;;;;;;9.70;5.40;;;;;;;26.36;41.05;100715.97;5086579;28;20398;-58
2022/08/19 04:02:15;;;;;;;10.20;5.37;;;;;;;26.39;41.16;100717.34;5079200;28;20400;-57
2022/08/19 04:04:43;;;;;;;13.73;5.57;;;;;;;26.44;41.16;100720.06;5094755;28;20457;-56
2022/08/19 04:07:10;;;;;;;8.25;4.70;;;;;;;26.53;40.92;100718.41;5085385;28;20394;-57
2022/08/19 04:09:39;;;;;;;12.50;5.10;;;;;;;26.64;41.01;100727.38;5088081;28;20418;-57
2022/08/19 04:12:05;;;;;;;9.38;5.30;;;;;;;26.77;40.60;100734.91;5085400;28;20370;-57
2022/08/19 04:14:31;;;;;;;14.48;5.53;;;;;;;26.96;40.18;100728.88;5084186;28;20385;-57
2022/08/19 04:16:59;;;;;;;9.60;5.13;;;;;;;27.08;40.34;100732.06;5096382;28;20385;-59
2022/08/19 04:19:25;;;;;;;8.00;4.90;;;;;;;27.26;39.99;100736.91;5098761;28;20407;-58
2022/08/19 04:21:52;;;;;;;8.27;5.00;;;;;;;27.39;39.72;100731.94;5077856;28;20387;-57
2022/08/19 04:24:19;;;;;;;11.20;5.13;;;;;;;27.57;38.95;100741.34;5075095;28;20411;-58
2022/08/19 04:26:45;;;;;;;8.45;5.10;;;;;;;27.61;39.23;100747.84;5080584;28;20813;-59
2022/08/19 04:29:16;;;;;;;13.52;5.20;;;;;;;27.72;38.58;100745.84;5073018;28;20453;-58
2022/08/19 04:31:44;;;;;;;120.82;11.57;;;;;;;27.79;38.56;100744.41;5077086;28;20544;-56
2022/08/19 04:34:12;;;;;;;6.95;4.82;;;;;;;27.84;38.62;100741.66;5071792;28;20418;-60
2022/08/19 04:36:41;;;;;;;9.30;5.63;;;;;;;27.94;38.69;100748.13;5073270;28;20389;-58
2022/08/19 04:39:13;;;;;;;11.60;5.28;;;;;;;28.12;38.21;100741.97;5080793;28;20385;-59
2022/08/19 04:44:23;;;;;;;6.43;5.10;;;;;;;28.71;37.43;100752.84;5078108;28;20398;-57
2022/08/19 04:46:50;;;;;;;6.70;5.05;;;;;;;28.93;36.94;100752.28;5075376;28;20395;-60
2022/08/19 04:49:18;;;;;;;6.18;4.80;;;;;;;29.10;36.79;100751.78;5074504;28;20448;-59
2022/08/19 04:51:47;;;;;;;11.70;5.75;;;;;;;29.39;36.60;100739.94;5071536;28;20463;-60
2022/08/19 04:54:13;;;;;;;10.30;5.75;;;;;;;29.76;35.81;100746.50;5066537;28;20374;-59
2022/08/19 04:56:40;;;;;;;12.02;5.80;;;;;;;30.09;35.19;100741.84;5072914;28;20815;-58
2022/08/19 04:59:06;;;;;;;9.80;5.18;;;;;;;30.43;34.65;100738.78;5076297;28;20397;-60
2022/08/19 05:01:33;;;;;;;9.43;5.00;;;;;;;30.78;33.90;100739.16;5068907;28;20492;-59
2022/08/19 05:04:04;;;;;;;10.70;5.57;;;;;;;31.08;33.38;100734.19;5070156;28;20396;-61
2022/08/19 05:06:33;;;;;;;12.18;5.28;;;;;;;31.34;32.85;100734.41;5083127;28;20387;-59
2022/08/19 05:09:00;;;;;;;9.25;5.45;;;;;;;31.80;32.54;100729.75;5066824;28;20430;-61
2022/08/19 05:11:31;;;;;;;12.75;5.95;;;;;;;33.30;30.23;100727.25;5075539;28;20393;-58
2022/08/19 05:13:57;;;;;;;12.10;8.63;;;;;;;34.77;28.18;100727.16;5083497;28;20395;-59
2022/08/19 05:16:24;;;;;;;11.75;7.70;;;;;;;36.03;26.30;100715.19;5077879;28;20464;-58
2022/08/19 05:24:23;;;;;;;10.60;6.03;;;;;;;38.72;22.85;100714.50;5069714;28;20390;-60
2022/08/19 05:26:51;;;;;;;10.02;5.78;;;;;;;39.35;22.03;100709.88;5074041;28;20478;-58
2022/08/19 05:29:19;;;;;;;11.07;5.45;;;;;;;39.96;21.58;100711.03;5073123;28;20511;-56
2022/08/19 05:31:46;;;;;;;10.63;5.57;;;;;;;40.67;20.60;100707.75;5077880;28;20390;-61
2022/08/19 05:34:12;;;;;;;7.07;5.03;;;;;;;41.14;20.33;100711.16;5067260;28;20375;-60
2022/08/19 05:36:40;;;;;;;7.70;5.13;;;;;;;41.89;19.68;100709.19;5067479;28;20436;-61
2022/08/19 05:39:07;;;;;;;8.35;5.28;;;;;;;42.61;18.69;100698.56;5067790;28;20375;-57
2022/08/19 05:41:34;;;;;;;10.90;5.40;;;;;;;43.26;18.19;100690.47;5070112;28;20391;-57
2022/08/19 05:44:09;;;;;;;22.52;5.32;;;;;;;43.81;17.53;100706.91;5069363;28;20418;-57
2022/08/19 05:46:35;;;;;;;8.90;5.53;;;;;;;44.19;17.32;100696.19;5071058;28;20401;-58
2022/08/19 05:49:00;;;;;;;11.00;5.18;;;;;;;44.51;16.94;100702.88;5079879;28;20410;-59
2022/08/19 05:51:26;;;;;;;8.27;5.60;;;;;;;45.19;16.13;100703.41;5068318;28;20895;-58
2022/08/19 05:53:51;;;;;;;7.05;5.57;;;;;;;45.42;16.40;100702.13;5066773;28;20430;-59
2022/08/19 05:56:17;;;;;;;9.63;5.30;;;;;;;45.93;15.80;100697.72;5077441;28;20414;-59
2022/08/19 05:58:44;;;;;;;9.47;5.73;;;;;;;46.39;15.51;100692.06;5067180;28;20417;-59
2022/08/19 06:01:17;;;;;;;7.68;5.72;;;;;;;46.71;15.32;100703.75;5074309;28;20519;-59
2022/08/19 06:03:44;;;;;;;9.43;6.00;;;;;;;46.77;15.10;100697.66;5070375;28;20399;-58
2022/08/19 06:06:12;;;;;;;10.60;6.38;;;;;;;47.26;15.21;100687.81;5069349;28;20490;-59
2022/08/19 06:08:38;;;;;;;6.57;5.80;;;;;;;47.80;14.49;100698.19;5069884;28;20437;-59
2022/08/19 06:11:14;;;;;;;8.73;6.10;;;;;;;48.14;14.30;100696.44;5078607;28;20386;-57
2022/08/19 06:13:40;;;;;;;8.07;5.95;;;;;;;49.06;13.19;100692.97;5074427;28;20497;-59
2022/08/19 06:16:05;;;;;;;10.60;6.10;;;;;;;49.66;13.36;100691.97;5072878;28;20478;-59
2022/08/19 06:18:31;;;;;;;6.97;6.27;;;;;;;49.83;12.97;100689.94;5067682;28;20464;-58
2022/08/19 06:20:57;;;;;;;7.25;6.10;;;;;;;49.78;12.68;100702.53;5070316;28;20387;-57
2022/08/19 06:23:22;;;;;;;11.07;6.70;;;;;;;50.65;12.50;100698.16;5072175;28;20920;-60
2022/08/19 06:25:48;;;;;;;9.60;6.53;;;;;;;51.13;11.91;100692.69;5074896;28;20420;-58
2022/08/19 06:28:13;;;;;;;10.27;6.45;;;;;;;51.09;11.96;100697.66;5077099;28;20383;-58
2022/08/19 06:30:39;;;;;;;8.17;6.60;;;;;;;51.32;11.76;100702.97;5069667;28;20836;-59
2022/08/19 06:33:04;;;;;;;10.07;6.20;;;;;;;51.42;11.52;100689.75;5071294;28;20395;-58
2022/08/19 06:35:30;;;;;;;8.80;6.55;;;;;;;52.15;11.08;100691.69;5067017;28;20513;-60
2022/08/19 06:37:56;;;;;;;10.10;6.80;;;;;;;52.60;10.84;100701.78;5072880;28;20782;-61
2022/08/19 06:40:21;;;;;;;8.77;6.80;;;;;;;52.98;10.55;100699.94;5075117;28;20834;-58
2022/08/19 06:42:47;;;;;;;9.85;7.00;;;;;;;52.65;10.99;100709.69;5075942;28;20423;-60
2022/08/19 06:45:12;;;;;;;11.90;6.90;;;;;;;52.75;10.57;100700.00;5070679;28;20387;-61
2022/08/19 06:47:38;;;;;;;9.50;7.33;;;;;;;53.02;10.32;100706.25;5069778;28;20417;-61
2022/08/19 06:50:04;;;;;;;10.10;7.13;;;;;;;53.16;10.23;100704.88;5072524;28;20410;-58
2022/08/19 06:52:32;;;;;;;10.07;7.03;;;;;;;53.17;10.58;100707.25;5069121;28;20397;-58
2022/08/19 06:54:59;;;;;;;9.20;6.77;;;;;;;53.33;10.28;100700.56;5069105;28;20399;-60
2022/08/19 06:57:25;;;;;;;10.93;7.40;;;;;;;53.72;10.09;100703.81;5078503;28;20385;-58
2022/08/19 06:59:51;;;;;;;7.33;6.60;;;;;;;54.03;9.57;100706.50;5071329;28;20393;-58
2022/08/19 07:02:17;;;;;;;8.73;6.63;;;;;;;53.99;9.72;100708.72;5074706;28;20449;-58
2022/08/19 07:04:43;;;;;;;9.13;6.90;;;;;;;54.31;9.45;100700.03;5077200;28;20491;-58
2022/08/19 07:07:12;;;;;;;8.60;7.33;;;;;;;54.60;9.35;100703.16;5073227;28;20879;-58
2022/08/19 07:09:42;;;;;;;7.43;6.83;;;;;;;54.36;9.12;100711.53;5074898;28;20427;-58
2022/08/19 07:12:09;;;;;;;8.85;6.53;;;;;;;54.18;9.43;100705.88;5078162;28;20431;-58
2022/08/19 07:14:37;;;;;;;8.30;7.40;;;;;;;53.41;10.30;100709.56;5068020;28;20454;-58
2022/08/19 07:17:04;;;;;;;8.75;7.32;;;;;;;51.55;11.44;100709.53;5073895;28;20401;-58
2022/08/19 07:19:31;;;;;;;8.60;6.75;;;;;;;49.73;12.48;100705.84;5078313;28;20981;-57
2022/08/19 07:21:58;;;;;;;7.78;6.88;;;;;;;48.76;13.38;100708.06;5067780;28;20383;-60
2022/08/19 07:24:25;;;;;;;10.83;7.10;;;;;;;49.30;13.01;100704.06;5076914;28;20836;-58
2022/08/19 07:26:54;;;;;;;9.18;7.35;;;;;;;50.53;11.96;100708.16;5075978;28;20390;-61
2022/08/19 07:29:24;;;;;;;9.55;7.10;;;;;;;51.71;11.41;100705.75;5069824;28;20426;-59
2022/08/19 07:31:51;;;;;;;11.30;7.20;;;;;;;50.84;11.68;100705.69;5057728;28;20401;-58
2022/08/19 07:34:17;;;;;;;9.68;7.38;;;;;;;49.01;13.37;100709.56;5064701;28;20426;-59
2022/08/19 07:36:43;;;;;;;9.00;7.63;;;;;;;46.92;14.85;100699.88;5072781;28;20392;-58
2022/08/19 07:39:15;;;;;;;9.85;7.40;;;;;;;45.26;16.55;100715.78;5081571;28;20387;-59
2022/08/19 07:41:41;;;;;;;8.68;7.50;;;;;;;44.11;17.37;100705.72;5073966;28;20432;-58
2022/08/19 07:44:08;;;;;;;10.70;7.53;;;;;;;43.06;18.42;100713.13;5064656;28;20482;-58
2022/08/19 07:46:37;;;;;;;10.45;7.80;;;;;;;42.24;19.34;100712.66;5081448;28;20422;-57
2022/08/19 07:49:04;;;;;;;9.45;7.38;;;;;;;41.67;20.12;100710.97;5072971;28;20976;-57
2022/08/19 07:51:30;;;;;;;8.50;7.20;;;;;;;41.26;20.39;100722.06;5069614;28;20397;-56
2022/08/19 07:53:56;;;;;;;10.53;7.30;;;;;;;40.87;21.05;100714.78;5070029;28;20742;-59
2022/08/19 07:56:22;;;;;;;8.57;7.13;;;;;;;40.54;21.27;100709.97;5070457;28;20542;-59
2022/08/19 07:58:50;;;;;;;9.23;7.45;;;;;;;39.99;21.73;100709.47;5075628;28;20408;-57
2022/08/19 08:01:20;;;;;;;8.02;7.25;;;;;;;39.49;22.68;100718.50;5067575;28;20765;-57
2022/08/19 08:09:21;;;;;;;10.75;7.72;;;;;;;38.89;23.41;100702.19;5072319;28;20568;-58
2022/08/19 08:11:49;;;;;;;13.40;8.25;;;;;;;38.50;24.01;100706.84;5071682;28;20386;-57
2022/08/19 08:14:18;;;;;;;8.98;7.68;;;;;;;38.16;24.54;100703.66;5068062;28;20402;-58
2022/08/19 08:16:45;;;;;;;12.27;7.90;;;;;;;37.73;24.90;100703.38;5073880;28;20745;-57
2022/08/19 08:19:14;;;;;;;11.27;8.25;;;;;;;37.27;25.45;100703.69;5075772;28;20389;-57
2022/08/19 08:21:40;;;;;;;9.02;7.90;;;;;;;36.86;26.13;100707.59;5078076;28;20398;-58
2022/08/19 08:24:06;;;;;;;12.70;8.23;;;;;;;36.68;26.27;100712.59;5071522;28;20387;-58
2022/08/19 08:26:31;;;;;;;9.97;7.97;;;;;;;36.62;26.24;100705.69;5073920;28;20390;-57
2022/08/19 08:28:57;;;;;;;8.67;7.77;;;;;;;36.51;26.47;100702.59;5079863;28;20408;-57
2022/08/19 08:31:23;;;;;;;10.52;7.95;;;;;;;36.30;27.08;100700.78;5070321;28;20486;-59
2022/08/19 08:33:49;;;;;;;9.60;7.83;;;;;;;36.26;27.18;100704.56;5067838;28;20448;-57
2022/08/19 08:36:14;;;;;;;10.02;7.75;;;;;;;36.36;27.42;100704.91;5069799;28;20785;-57
2022/08/19 08:38:42;;;;;;;13.02;7.88;;;;;;;36.26;27.08;100702.59;5067782;28;20399;-59
2022/08/19 08:41:31;;;;;;;11.88;8.20;;;;;;;36.26;27.04;100696.28;5075534;28;20390;-58
2022/08/19 08:43:58;;;;;;;10.68;7.70;;;;;;;36.23;27.28;100703.28;5073571;28;20386;-59
2022/08/19 08:46:38;;;;;;;12.60;7.78;;;;;;;36.11;27.53;100693.00;5077986;28;20387;-59
2022/08/19 08:49:20;;;;;;;9.75;7.80;;;;;;;36.08;27.64;100695.66;5067783;28;20414;-57
2022/08/19 08:52:00;;;;;;;11.63;7.87;;;;;;;35.89;27.88;100688.75;5076774;28;20415;-57
2022/08/19 08:54:34;;;;;;;11.15;7.72;;;;;;;35.76;27.67;100685.16;5074628;28;20796;-58
2022/08/19 08:57:00;;;;;;;10.70;7.68;;;;;;;35.72;27.89;100684.22;5077980;28;20387;-57
2022/08/19 08:59:36;;;;;;;8.40;7.28;;;;;;;35.49;27.76;100688.50;5071954;28;20430;-58
2022/08/19 09:02:02;;;;;;;9.63;7.13;;;;;;;35.43;28.06;100687.91;5069119;28;20413;-57
2022/08/19 09:04:28;;;;;;;9.48;7.30;;;;;;;35.41;28.18;100691.00;5066098;28;20406;-60
2022/08/19 09:07:16;;;;;;;10.98;7.60;;;;;;;35.32;27.98;100687.53;5071371;28;20385;-58
2022/08/19 09:09:46;;;;;;;7.90;7.10;;;;;;;35.09;27.63;100683.50;5072998;28;20523;-59
2022/08/19 09:12:30;;;;;;;8.30;7.40;;;;;;;34.98;27.76;100672.88;5079418;28;20472;-58
2022/08/19 09:15:04;;;;;;;10.18;6.85;;;;;;;35.10;27.72;100679.63;5061106;28;20783;-60
2022/08/19 09:17:33;;;;;;;9.65;6.78;;;;;;;35.06;27.79;100675.91;5070015;28;20408;-59
2022/08/19 09:20:23;;;;;;;9.93;7.57;;;;;;;35.08;28.10;100666.19;5068801;27;2057641;-61
2022/08/19 09:22:49;;;;;;;9.90;7.47;;;;;;;35.04;27.93;100670.72;5123261;28;20403;-61
2022/08/19 09:25:22;;;;;;;10.13;7.05;;;;;;;34.99;27.67;100663.50;5119746;28;20453;-61
2022/08/19 09:27:49;;;;;;;8.40;7.55;;;;;;;35.02;28.11;100665.56;5118022;28;20444;-59
2022/08/19 09:30:21;;;;;;;11.10;7.63;;;;;;;35.01;28.30;100661.19;5118363;28;20932;-57
2022/08/19 09:32:48;;;;;;;13.00;7.70;;;;;;;34.94;28.67;100654.63;5118997;28;20884;-59
2022/08/19 09:35:14;;;;;;;11.30;7.20;;;;;;;34.92;27.91;100656.91;5125364;28;20399;-56
2022/08/19 09:37:42;;;;;;;9.02;7.32;;;;;;;34.69;28.20;100651.72;5122391;27;21180;-56
2022/08/19 09:40:09;;;;;;;7.80;7.00;;;;;;;34.75;28.45;100658.63;5120568;27;20464;-59
2022/08/19 09:42:35;;;;;;;9.30;7.70;;;;;;;34.59;28.63;100652.91;5106124;28;20487;-56
2022/08/19 09:45:01;;;;;;;9.90;7.75;;;;;;;34.64;28.97;100654.66;5119132;28;20900;-57
2022/08/19 09:47:27;;;;;;;10.07;7.80;;;;;;;34.69;28.91;100643.47;5122091;28;20433;-58
2022/08/19 09:49:52;;;;;;;13.63;8.27;;;;;;;34.74;28.78;100637.78;5125454;28;20418;-59
2022/08/19 09:52:18;;;;;;;13.50;7.77;;;;;;;34.80;28.97;100646.63;5119241;28;20383;-57
2022/08/19 09:54:43;;;;;;;10.57;7.73;;;;;;;34.81;29.20;100640.78;5119661;27;20769;-60
2022/08/19 09:57:09;;;;;;;8.57;7.72;;;;;;;34.76;28.74;100637.44;5124471;27;20463;-58
2022/08/19 09:59:35;;;;;;;10.73;8.23;;;;;;;34.73;28.78;100640.84;5115484;28;20415;-58
2022/08/19 10:02:00;;;;;;;9.07;7.93;;;;;;;34.76;28.72;100637.44;5119285;28;20890;-58
2022/08/19 10:05:47;;;;;;;8.40;7.53;;;;;;;34.74;28.85;100634.22;5122197;28;20756;-57
2022/08/19 10:07:11;;;;;;;8.10;7.35;;;;;;;34.62;28.81;100630.19;5112473;28;20444;-58
2022/08/19 10:09:37;;;;;;;9.07;7.97;;;;;;;34.74;28.67;100629.50;5122805;28;20391;-57
2022/08/19 10:12:04;;;;;;;10.67;7.37;;;;;;;34.80;28.68;100630.91;5122220;28;20389;-58
2022/08/19 10:14:31;;;;;;;8.95;7.00;;;;;;;34.78;28.29;100624.94;5118159;28;20489;-59
2022/08/19 10:16:56;;;;;;;11.63;7.22;;;;;;;34.80;28.12;100627.34;5124704;28;20418;-58
2022/08/19 10:19:22;;;;;;;10.38;7.47;;;;;;;34.80;28.51;100621.84;5119039;28;20455;-59
2022/08/19 10:21:48;;;;;;;9.93;7.77;;;;;;;34.75;28.47;100622.84;5118075;27;20445;-58
2022/08/19 10:24:13;;;;;;;11.17;7.73;;;;;;;34.70;28.75;100623.06;5121632;28;20461;-57
2022/08/19 10:26:44;;;;;;;9.77;7.03;;;;;;;34.63;28.48;100617.25;5123795;28;20923;-58
2022/08/19 10:29:35;;;;;;;10.85;6.97;;;;;;;34.65;28.38;100615.78;5046255;28;20927;-58
2022/08/19 10:32:02;;;;;;;9.77;7.80;;;;;;;34.72;28.54;100604.25;5040150;28;20463;-59
2022/08/19 10:34:29;;;;;;;9.98;7.28;;;;;;;34.82;28.68;100608.53;5040937;28;20404;-59
2022/08/19 10:36:56;;;;;;;8.45;7.22;;;;;;;34.85;28.61;100599.63;5049441;28;20480;-58
2022/08/19 10:39:21;;;;;;;8.63;7.10;;;;;;;34.89;27.70;100608.81;5045186;28;20896;-59
2022/08/19 10:41:47;;;;;;;9.73;6.50;;;;;;;34.88;27.10;100603.63;5048806;28;20386;-59
2022/08/19 10:44:13;;;;;;;7.78;6.47;;;;;;;35.01;27.16;100597.84;5045754;28;20415;-59
2022/08/19 10:46:42;;;;;;;10.63;6.60;;;;;;;35.15;27.49;100596.72;5044317;28;20401;-59
2022/08/19 10:49:10;;;;;;;8.77;6.63;;;;;;;35.13;26.95;100594.34;5039518;28;20922;-58
2022/08/19 10:54:21;;;;;;;8.77;6.25;;;;;;;35.24;27.06;100589.22;5042309;28;20462;-60
2022/08/19 10:56:53;;;;;;;10.20;6.57;;;;;;;35.19;27.03;100589.41;5044729;28;20884;-60
2022/08/19 10:59:27;;;;;;;10.68;6.30;;;;;;;35.22;27.53;100591.50;5043627;28;20752;-60
2022/08/19 11:01:54;;;;;;;9.70;6.40;;;;;;;35.31;26.95;100580.38;5036665;28;20379;-59
2022/08/19 11:04:20;;;;;;;8.13;6.10;;;;;;;35.28;26.64;100584.63;5028887;28;20754;-59
2022/08/19 11:06:48;;;;;;;7.85;5.70;;;;;;;35.39;26.23;100568.47;5032469;28;20387;-59
2022/08/19 11:09:24;;;;;;;9.50;6.30;;;;;;;35.53;26.79;100571.69;5039062;28;20411;-59
2022/08/19 11:11:52;;;;;;;10.60;7.07;;;;;;;35.57;27.12;100566.31;5036603;28;20485;-59
2022/08/19 11:14:20;;;;;;;6.97;6.28;;;;;;;35.46;26.76;100559.66;5045353;28;20393;-58
2022/08/19 11:16:50;;;;;;;8.60;5.90;;;;;;;35.43;27.05;100561.13;5045999;28;20374;-58
2022/08/19 11:19:18;;;;;;;12.68;5.88;;;;;;;35.48;25.91;100560.09;5044439;28;20883;-59
2022/08/19 11:21:46;;;;;;;7.38;5.43;;;;;;;35.66;26.18;100555.97;5039520;28;20803;-58
2022/08/19 11:24:19;;;;;;;9.60;5.45;;;;;;;35.78;25.78;100563.47;5041634;28;20400;-60
2022/08/19 11:26:46;;;;;;;11.00;5.95;;;;;;;35.91;26.22;100554.03;5044228;28;20493;-58
2022/08/19 11:29:13;;;;;;;7.88;5.30;;;;;;;35.84;26.08;100559.34;5044384;28;20707;-57
2022/08/19 11:31:41;;;;;;;6.63;4.45;;;;;;;35.90;24.75;100557.94;5045233;28;20469;-59
2022/08/19 11:34:10;;;;;;;5.50;4.90;;;;;;;35.84;24.61;100547.50;5045389;28;20389;-62
2022/08/19 11:36:40;;;;;;;8.35;4.38;;;;;;;35.84;23.98;100545.53;5041194;28;21024;-59
2022/08/19 11:39:07;;;;;;;6.70;5.45;;;;;;;35.93;24.54;100548.19;5034965;28;20416;-61
2022/08/19 11:41:33;;;;;;;6.03;5.00;;;;;;;35.88;24.86;100542.91;5031782;28;20530;-60
2022/08/19 11:43:59;;;;;;;6.68;4.40;;;;;;;35.86;24.12;100540.47;5027308;28;20422;-59
2022/08/19 11:46:29;;;;;;;5.87;4.67;;;;;;;35.85;24.29;100538.06;5031070;28;20426;-59
2022/08/19 11:48:59;;;;;;;5.85;4.65;;;;;;;35.93;24.51;100537.94;5023865;28;20464;-59